sensor_id;sensor_type;location;lat;lon;timestamp;temperature;humidity
9808;DHT22;4943;52.550;13.462;2023-07-29T00:00:55;21.10;99.90
9808;DHT22;4943;52.550;13.462;2023-07-29T00:03:23;21.10;99.90
9808;DHT22;4943;52.550;13.462;2023-07-29T00:05:51;21.10;99.90
9808;DHT22;4943;52.550;13.462;2023-07-29T00:08:19;21.00;99.90
9808;DHT22;4943;52.550;13.462;2023-07-29T00:10:49;21.00;99.90
9808;DHT22;4943;52.550;13.462;2023-07-29T00:13:17;21.00;99.90
9808;DHT22;4943;52.550;13.462;2023-07-29T00:15:48;21.00;99.90
9808;DHT22;4943;52.550;13.462;2023-07-29T00:18:16;21.00;99.90
9808;DHT22;4943;52.550;13.462;2023-07-29T00:20:44;20.90;99.90
9808;DHT22;4943;52.550;13.462;2023-07-29T00:23:12;20.90;99.90
9808;DHT22;4943;52.550;13.462;2023-07-29T00:25:40;20.90;99.90
9808;DHT22;4943;52.550;13.462;2023-07-29T00:28:10;20.90;99.90
9808;DHT22;4943;52.550;13.462;2023-07-29T00:30:38;20.90;99.90
9808;DHT22;4943;52.550;13.462;2023-07-29T00:33:06;20.80;99.90
9808;DHT22;4943;52.550;13.462;2023-07-29T00:35:34;20.80;99.90
9808;DHT22;4943;52.550;13.462;2023-07-29T00:38:02;20.80;99.90
9808;DHT22;4943;52.550;13.462;2023-07-29T00:40:31;20.70;99.90
9808;DHT22;4943;52.550;13.462;2023-07-29T00:43:02;20.70;99.90
9808;DHT22;4943;52.550;13.462;2023-07-29T00:45:32;20.70;99.90
9808;DHT22;4943;52.550;13.462;2023-07-29T00:48:01;20.60;99.90
9808;DHT22;4943;52.550;13.462;2023-07-29T00:50:30;20.60;99.90
9808;DHT22;4943;52.550;13.462;2023-07-29T00:52:58;20.60;99.90
9808;DHT22;4943;52.550;13.462;2023-07-29T00:55:28;20.60;99.90
9808;DHT22;4943;52.550;13.462;2023-07-29T00:57:57;20.60;99.90
9808;DHT22;4943;52.550;13.462;2023-07-29T01:00:25;20.60;99.90
9808;DHT22;4943;52.550;13.462;2023-07-29T01:02:54;20.60;99.90
9808;DHT22;4943;52.550;13.462;2023-07-29T01:05:24;20.60;99.90
9808;DHT22;4943;52.550;13.462;2023-07-29T01:07:59;20.50;99.90
9808;DHT22;4943;52.550;13.462;2023-07-29T01:10:34;20.50;99.90
9808;DHT22;4943;52.550;13.462;2023-07-29T01:13:13;20.50;99.90
9808;DHT22;4943;52.550;13.462;2023-07-29T01:15:51;20.50;99.90
9808;DHT22;4943;52.550;13.462;2023-07-29T01:18:26;20.50;99.90
9808;DHT22;4943;52.550;13.462;2023-07-29T01:20:58;20.40;99.90
9808;DHT22;4943;52.550;13.462;2023-07-29T01:23:29;20.40;99.90
9808;DHT22;4943;52.550;13.462;2023-07-29T01:25:58;20.40;99.90
9808;DHT22;4943;52.550;13.462;2023-07-29T01:28:26;20.40;99.90
9808;DHT22;4943;52.550;13.462;2023-07-29T01:31:01;20.40;99.90
9808;DHT22;4943;52.550;13.462;2023-07-29T01:33:33;20.40;99.90
9808;DHT22;4943;52.550;13.462;2023-07-29T01:36:06;20.40;99.90
9808;DHT22;4943;52.550;13.462;2023-07-29T01:38:38;20.40;99.90
9808;DHT22;4943;52.550;13.462;2023-07-29T01:41:08;20.40;99.90
9808;DHT22;4943;52.550;13.462;2023-07-29T01:43:37;20.40;99.90
9808;DHT22;4943;52.550;13.462;2023-07-29T01:46:11;20.40;99.90
9808;DHT22;4943;52.550;13.462;2023-07-29T01:48:39;20.30;99.90
9808;DHT22;4943;52.550;13.462;2023-07-29T01:51:10;20.30;99.90
9808;DHT22;4943;52.550;13.462;2023-07-29T01:53:39;20.30;99.90
9808;DHT22;4943;52.550;13.462;2023-07-29T01:56:07;20.30;99.90
9808;DHT22;4943;52.550;13.462;2023-07-29T01:58:35;20.30;99.90
9808;DHT22;4943;52.550;13.462;2023-07-29T02:01:03;20.30;99.90
9808;DHT22;4943;52.550;13.462;2023-07-29T02:03:31;20.30;99.90
9808;DHT22;4943;52.550;13.462;2023-07-29T02:05:59;20.30;99.90
9808;DHT22;4943;52.550;13.462;2023-07-29T02:08:27;20.30;99.90
9808;DHT22;4943;52.550;13.462;2023-07-29T02:10:57;20.30;99.90
9808;DHT22;4943;52.550;13.462;2023-07-29T02:13:25;20.20;99.90
9808;DHT22;4943;52.550;13.462;2023-07-29T02:15:54;20.20;99.90
9808;DHT22;4943;52.550;13.462;2023-07-29T02:18:22;20.20;99.90
9808;DHT22;4943;52.550;13.462;2023-07-29T02:20:50;20.20;99.90
9808;DHT22;4943;52.550;13.462;2023-07-29T02:23:18;20.10;99.90
9808;DHT22;4943;52.550;13.462;2023-07-29T02:25:46;20.10;99.90
9808;DHT22;4943;52.550;13.462;2023-07-29T02:28:16;20.10;99.90
9808;DHT22;4943;52.550;13.462;2023-07-29T02:30:44;20.10;99.90
9808;DHT22;4943;52.550;13.462;2023-07-29T02:33:12;20.10;99.90
9808;DHT22;4943;52.550;13.462;2023-07-29T02:35:40;20.00;99.90
9808;DHT22;4943;52.550;13.462;2023-07-29T02:38:08;20.00;99.90
9808;DHT22;4943;52.550;13.462;2023-07-29T02:40:37;20.00;99.90
9808;DHT22;4943;52.550;13.462;2023-07-29T02:43:05;20.00;99.90
9808;DHT22;4943;52.550;13.462;2023-07-29T02:45:35;20.00;99.90
9808;DHT22;4943;52.550;13.462;2023-07-29T02:48:03;20.00;99.90
9808;DHT22;4943;52.550;13.462;2023-07-29T02:50:31;19.90;99.90
9808;DHT22;4943;52.550;13.462;2023-07-29T02:53:01;19.90;99.90
9808;DHT22;4943;52.550;13.462;2023-07-29T02:55:30;19.80;99.90
9808;DHT22;4943;52.550;13.462;2023-07-29T02:57:58;19.80;99.90
9808;DHT22;4943;52.550;13.462;2023-07-29T03:00:26;19.80;99.90
9808;DHT22;4943;52.550;13.462;2023-07-29T03:02:55;19.80;99.90
9808;DHT22;4943;52.550;13.462;2023-07-29T03:05:24;19.80;99.90
9808;DHT22;4943;52.550;13.462;2023-07-29T03:07:52;19.80;99.90
9808;DHT22;4943;52.550;13.462;2023-07-29T03:10:20;19.80;99.90
9808;DHT22;4943;52.550;13.462;2023-07-29T03:12:49;19.80;99.90
9808;DHT22;4943;52.550;13.462;2023-07-29T03:15:17;19.80;99.90
9808;DHT22;4943;52.550;13.462;2023-07-29T03:17:45;19.80;99.90
9808;DHT22;4943;52.550;13.462;2023-07-29T03:20:15;19.80;99.90
9808;DHT22;4943;52.550;13.462;2023-07-29T03:22:44;19.80;99.90
9808;DHT22;4943;52.550;13.462;2023-07-29T03:25:13;19.80;99.90
9808;DHT22;4943;52.550;13.462;2023-07-29T03:27:41;19.80;99.90
9808;DHT22;4943;52.550;13.462;2023-07-29T03:30:10;19.80;99.90
9808;DHT22;4943;52.550;13.462;2023-07-29T03:32:43;19.80;99.90
9808;DHT22;4943;52.550;13.462;2023-07-29T03:35:12;19.80;99.90
9808;DHT22;4943;52.550;13.462;2023-07-29T03:37:42;19.80;99.90
9808;DHT22;4943;52.550;13.462;2023-07-29T03:40:10;19.80;99.90
9808;DHT22;4943;52.550;13.462;2023-07-29T03:42:38;19.80;99.90
9808;DHT22;4943;52.550;13.462;2023-07-29T03:45:07;19.80;99.90
9808;DHT22;4943;52.550;13.462;2023-07-29T03:47:35;19.80;99.90
9808;DHT22;4943;52.550;13.462;2023-07-29T03:50:03;19.80;99.90
9808;DHT22;4943;52.550;13.462;2023-07-29T03:52:32;19.90;99.90
9808;DHT22;4943;52.550;13.462;2023-07-29T03:55:01;19.90;99.90
9808;DHT22;4943;52.550;13.462;2023-07-29T03:57:29;19.90;99.90
9808;DHT22;4943;52.550;13.462;2023-07-29T03:59:57;19.90;99.90
9808;DHT22;4943;52.550;13.462;2023-07-29T04:02:26;19.90;99.90
9808;DHT22;4943;52.550;13.462;2023-07-29T04:04:55;19.90;99.90
9808;DHT22;4943;52.550;13.462;2023-07-29T04:07:23;20.00;99.90
9808;DHT22;4943;52.550;13.462;2023-07-29T04:09:51;20.00;99.90
9808;DHT22;4943;52.550;13.462;2023-07-29T04:12:20;20.00;99.90
9808;DHT22;4943;52.550;13.462;2023-07-29T04:14:49;20.00;99.90
9808;DHT22;4943;52.550;13.462;2023-07-29T04:17:17;20.00;99.90
9808;DHT22;4943;52.550;13.462;2023-07-29T04:19:45;20.10;99.90
9808;DHT22;4943;52.550;13.462;2023-07-29T04:22:15;20.10;99.90
9808;DHT22;4943;52.550;13.462;2023-07-29T04:24:43;20.10;99.90
9808;DHT22;4943;52.550;13.462;2023-07-29T04:27:11;20.20;99.90
9808;DHT22;4943;52.550;13.462;2023-07-29T04:29:40;20.20;99.90
9808;DHT22;4943;52.550;13.462;2023-07-29T04:32:08;20.20;99.90
9808;DHT22;4943;52.550;13.462;2023-07-29T04:34:36;20.30;99.90
9808;DHT22;4943;52.550;13.462;2023-07-29T04:37:05;20.30;99.90
9808;DHT22;4943;52.550;13.462;2023-07-29T04:39:33;20.40;99.90
9808;DHT22;4943;52.550;13.462;2023-07-29T04:42:01;20.40;99.90
9808;DHT22;4943;52.550;13.462;2023-07-29T04:44:29;20.50;99.90
9808;DHT22;4943;52.550;13.462;2023-07-29T04:46:58;20.60;99.90
9808;DHT22;4943;52.550;13.462;2023-07-29T04:49:26;20.70;99.90
9808;DHT22;4943;52.550;13.462;2023-07-29T04:51:54;20.80;99.90
9808;DHT22;4943;52.550;13.462;2023-07-29T04:54:22;20.90;99.90
9808;DHT22;4943;52.550;13.462;2023-07-29T04:56:51;20.90;99.90
9808;DHT22;4943;52.550;13.462;2023-07-29T04:59:19;20.90;99.90
9808;DHT22;4943;52.550;13.462;2023-07-29T05:01:47;20.90;99.90
9808;DHT22;4943;52.550;13.462;2023-07-29T05:04:16;20.90;99.90
9808;DHT22;4943;52.550;13.462;2023-07-29T05:06:44;21.00;99.90
9808;DHT22;4943;52.550;13.462;2023-07-29T05:09:13;21.00;99.90
9808;DHT22;4943;52.550;13.462;2023-07-29T05:11:42;21.10;99.90
9808;DHT22;4943;52.550;13.462;2023-07-29T05:14:14;21.10;99.90
9808;DHT22;4943;52.550;13.462;2023-07-29T05:16:43;21.20;99.90
9808;DHT22;4943;52.550;13.462;2023-07-29T05:19:11;21.20;99.90
9808;DHT22;4943;52.550;13.462;2023-07-29T05:21:41;21.30;99.90
9808;DHT22;4943;52.550;13.462;2023-07-29T05:24:09;21.30;99.90
9808;DHT22;4943;52.550;13.462;2023-07-29T05:26:37;21.40;99.90
9808;DHT22;4943;52.550;13.462;2023-07-29T05:29:05;21.40;99.90
9808;DHT22;4943;52.550;13.462;2023-07-29T05:31:33;21.40;99.90
9808;DHT22;4943;52.550;13.462;2023-07-29T05:34:01;21.40;99.90
9808;DHT22;4943;52.550;13.462;2023-07-29T05:36:30;21.50;99.90
9808;DHT22;4943;52.550;13.462;2023-07-29T05:38:59;21.60;99.90
9808;DHT22;4943;52.550;13.462;2023-07-29T05:41:27;21.60;99.90
9808;DHT22;4943;52.550;13.462;2023-07-29T05:43:55;21.80;99.90
9808;DHT22;4943;52.550;13.462;2023-07-29T05:46:23;21.90;99.90
9808;DHT22;4943;52.550;13.462;2023-07-29T05:48:52;22.00;99.90
9808;DHT22;4943;52.550;13.462;2023-07-29T05:51:20;22.00;99.90
9808;DHT22;4943;52.550;13.462;2023-07-29T05:53:48;22.00;99.90
9808;DHT22;4943;52.550;13.462;2023-07-29T05:56:17;22.00;99.90
9808;DHT22;4943;52.550;13.462;2023-07-29T05:58:45;22.00;99.90
9808;DHT22;4943;52.550;13.462;2023-07-29T06:01:13;21.90;99.90
9808;DHT22;4943;52.550;13.462;2023-07-29T06:03:41;21.90;99.90
9808;DHT22;4943;52.550;13.462;2023-07-29T06:06:10;21.90;99.90
9808;DHT22;4943;52.550;13.462;2023-07-29T06:08:38;21.90;99.90
9808;DHT22;4943;52.550;13.462;2023-07-29T06:11:06;22.00;99.90
9808;DHT22;4943;52.550;13.462;2023-07-29T06:13:35;22.00;99.90
9808;DHT22;4943;52.550;13.462;2023-07-29T06:16:03;22.10;99.90
9808;DHT22;4943;52.550;13.462;2023-07-29T06:18:31;22.10;99.90
9808;DHT22;4943;52.550;13.462;2023-07-29T06:20:59;22.20;99.90
9808;DHT22;4943;52.550;13.462;2023-07-29T06:23:28;22.20;99.90
9808;DHT22;4943;52.550;13.462;2023-07-29T06:25:56;22.20;99.90
9808;DHT22;4943;52.550;13.462;2023-07-29T06:28:24;22.30;99.90
9808;DHT22;4943;52.550;13.462;2023-07-29T06:30:53;22.30;99.90
9808;DHT22;4943;52.550;13.462;2023-07-29T06:33:21;22.40;99.90
9808;DHT22;4943;52.550;13.462;2023-07-29T06:35:49;22.40;99.90
9808;DHT22;4943;52.550;13.462;2023-07-29T06:38:17;22.40;99.90
9808;DHT22;4943;52.550;13.462;2023-07-29T06:40:48;22.40;99.90
9808;DHT22;4943;52.550;13.462;2023-07-29T06:43:16;22.40;99.90
9808;DHT22;4943;52.550;13.462;2023-07-29T06:45:45;22.50;99.90
9808;DHT22;4943;52.550;13.462;2023-07-29T06:48:14;22.60;99.90
9808;DHT22;4943;52.550;13.462;2023-07-29T06:50:42;22.60;99.90
9808;DHT22;4943;52.550;13.462;2023-07-29T06:53:10;22.70;99.90
9808;DHT22;4943;52.550;13.462;2023-07-29T06:55:38;22.70;99.90
9808;DHT22;4943;52.550;13.462;2023-07-29T06:58:07;22.80;99.90
9808;DHT22;4943;52.550;13.462;2023-07-29T07:00:35;22.90;99.90
9808;DHT22;4943;52.550;13.462;2023-07-29T07:03:03;23.00;99.90
9808;DHT22;4943;52.550;13.462;2023-07-29T07:05:34;23.10;99.90
9808;DHT22;4943;52.550;13.462;2023-07-29T07:08:06;23.20;99.90
9808;DHT22;4943;52.550;13.462;2023-07-29T07:10:34;23.30;99.90
9808;DHT22;4943;52.550;13.462;2023-07-29T07:13:02;23.50;99.90
9808;DHT22;4943;52.550;13.462;2023-07-29T07:15:31;23.60;99.90
9808;DHT22;4943;52.550;13.462;2023-07-29T07:17:59;23.70;99.90
9808;DHT22;4943;52.550;13.462;2023-07-29T07:20:27;23.80;99.90
9808;DHT22;4943;52.550;13.462;2023-07-29T07:22:58;23.90;99.90
9808;DHT22;4943;52.550;13.462;2023-07-29T07:25:26;24.00;99.90
9808;DHT22;4943;52.550;13.462;2023-07-29T07:27:54;24.00;99.90
9808;DHT22;4943;52.550;13.462;2023-07-29T07:30:22;24.00;99.90
9808;DHT22;4943;52.550;13.462;2023-07-29T07:32:50;24.10;99.90
9808;DHT22;4943;52.550;13.462;2023-07-29T07:35:20;24.10;99.90
9808;DHT22;4943;52.550;13.462;2023-07-29T07:37:48;24.20;99.90
9808;DHT22;4943;52.550;13.462;2023-07-29T07:40:17;24.30;99.90
9808;DHT22;4943;52.550;13.462;2023-07-29T07:42:45;24.40;99.90
9808;DHT22;4943;52.550;13.462;2023-07-29T07:45:14;24.50;99.90
9808;DHT22;4943;52.550;13.462;2023-07-29T07:47:42;24.50;99.90
9808;DHT22;4943;52.550;13.462;2023-07-29T07:50:10;24.70;99.90
9808;DHT22;4943;52.550;13.462;2023-07-29T07:52:41;24.80;99.90
9808;DHT22;4943;52.550;13.462;2023-07-29T07:55:09;24.90;99.90
9808;DHT22;4943;52.550;13.462;2023-07-29T07:57:38;25.00;99.90
9808;DHT22;4943;52.550;13.462;2023-07-29T08:00:07;25.10;99.90
9808;DHT22;4943;52.550;13.462;2023-07-29T08:02:36;25.00;99.90
9808;DHT22;4943;52.550;13.462;2023-07-29T08:05:05;25.00;99.90
9808;DHT22;4943;52.550;13.462;2023-07-29T08:07:33;25.00;99.90
9808;DHT22;4943;52.550;13.462;2023-07-29T08:10:01;24.90;99.90
9808;DHT22;4943;52.550;13.462;2023-07-29T08:12:29;24.90;99.90
9808;DHT22;4943;52.550;13.462;2023-07-29T08:14:59;24.90;99.90
9808;DHT22;4943;52.550;13.462;2023-07-29T08:17:27;25.00;99.90
9808;DHT22;4943;52.550;13.462;2023-07-29T08:19:55;25.10;99.90
9808;DHT22;4943;52.550;13.462;2023-07-29T08:22:23;25.20;99.90
9808;DHT22;4943;52.550;13.462;2023-07-29T08:24:51;25.30;99.90
9808;DHT22;4943;52.550;13.462;2023-07-29T08:27:19;25.40;99.90
9808;DHT22;4943;52.550;13.462;2023-07-29T08:29:47;25.50;99.90
9808;DHT22;4943;52.550;13.462;2023-07-29T08:32:16;25.60;99.90
9808;DHT22;4943;52.550;13.462;2023-07-29T08:34:44;25.80;99.90
9808;DHT22;4943;52.550;13.462;2023-07-29T08:37:13;26.00;99.90
9808;DHT22;4943;52.550;13.462;2023-07-29T08:39:41;26.20;99.90
9808;DHT22;4943;52.550;13.462;2023-07-29T08:42:11;26.30;99.90
9808;DHT22;4943;52.550;13.462;2023-07-29T08:44:41;26.30;99.90
9808;DHT22;4943;52.550;13.462;2023-07-29T08:47:09;26.30;99.90
9808;DHT22;4943;52.550;13.462;2023-07-29T08:49:42;26.30;99.90
9808;DHT22;4943;52.550;13.462;2023-07-29T08:52:11;26.40;99.90
9808;DHT22;4943;52.550;13.462;2023-07-29T08:54:40;26.40;99.90
9808;DHT22;4943;52.550;13.462;2023-07-29T08:57:08;26.60;99.90
9808;DHT22;4943;52.550;13.462;2023-07-29T08:59:37;26.70;99.90
9808;DHT22;4943;52.550;13.462;2023-07-29T09:02:06;26.60;99.90
9808;DHT22;4943;52.550;13.462;2023-07-29T09:04:35;26.60;99.90
9808;DHT22;4943;52.550;13.462;2023-07-29T09:07:05;26.50;99.90
9808;DHT22;4943;52.550;13.462;2023-07-29T09:09:33;26.50;99.90
9808;DHT22;4943;52.550;13.462;2023-07-29T09:12:02;26.50;99.90
9808;DHT22;4943;52.550;13.462;2023-07-29T09:14:30;26.70;99.90
9808;DHT22;4943;52.550;13.462;2023-07-29T09:16:58;26.80;99.90
9808;DHT22;4943;52.550;13.462;2023-07-29T09:19:26;26.90;99.90
9808;DHT22;4943;52.550;13.462;2023-07-29T09:21:55;27.10;99.90
9808;DHT22;4943;52.550;13.462;2023-07-29T09:24:24;27.20;99.90
9808;DHT22;4943;52.550;13.462;2023-07-29T09:26:56;27.20;99.90
9808;DHT22;4943;52.550;13.462;2023-07-29T09:29:28;27.20;99.90
9808;DHT22;4943;52.550;13.462;2023-07-29T09:32:17;27.30;99.90
9808;DHT22;4943;52.550;13.462;2023-07-29T09:34:46;27.40;99.90
9808;DHT22;4943;52.550;13.462;2023-07-29T09:37:18;27.50;99.90
9808;DHT22;4943;52.550;13.462;2023-07-29T09:39:50;27.60;99.90
9808;DHT22;4943;52.550;13.462;2023-07-29T09:42:19;27.60;99.90
9808;DHT22;4943;52.550;13.462;2023-07-29T09:44:49;27.60;99.90
9808;DHT22;4943;52.550;13.462;2023-07-29T09:47:21;27.70;99.90
9808;DHT22;4943;52.550;13.462;2023-07-29T09:49:50;27.80;99.90
9808;DHT22;4943;52.550;13.462;2023-07-29T09:52:19;28.00;99.90
9808;DHT22;4943;52.550;13.462;2023-07-29T09:54:47;28.00;99.90
9808;DHT22;4943;52.550;13.462;2023-07-29T09:57:18;28.00;99.90
9808;DHT22;4943;52.550;13.462;2023-07-29T09:59:54;28.00;99.90
9808;DHT22;4943;52.550;13.462;2023-07-29T10:02:23;28.00;99.90
9808;DHT22;4943;52.550;13.462;2023-07-29T10:04:52;28.00;99.90
9808;DHT22;4943;52.550;13.462;2023-07-29T10:07:21;28.00;99.90
9808;DHT22;4943;52.550;13.462;2023-07-29T10:09:51;28.00;99.90
9808;DHT22;4943;52.550;13.462;2023-07-29T10:12:22;28.00;99.90
9808;DHT22;4943;52.550;13.462;2023-07-29T10:14:50;28.20;99.90
9808;DHT22;4943;52.550;13.462;2023-07-29T10:17:19;28.30;99.90
9808;DHT22;4943;52.550;13.462;2023-07-29T10:19:49;28.30;99.90
9808;DHT22;4943;52.550;13.462;2023-07-29T10:22:20;28.40;99.90
9808;DHT22;4943;52.550;13.462;2023-07-29T10:24:49;28.40;99.90
9808;DHT22;4943;52.550;13.462;2023-07-29T10:27:20;28.40;99.90
9808;DHT22;4943;52.550;13.462;2023-07-29T10:29:50;28.40;99.90
9808;DHT22;4943;52.550;13.462;2023-07-29T10:32:21;28.40;99.90
9808;DHT22;4943;52.550;13.462;2023-07-29T10:34:52;28.50;99.90
9808;DHT22;4943;52.550;13.462;2023-07-29T10:37:21;28.40;99.90
9808;DHT22;4943;52.550;13.462;2023-07-29T10:39:54;28.40;99.90
9808;DHT22;4943;52.550;13.462;2023-07-29T10:42:24;28.40;99.90
9808;DHT22;4943;52.550;13.462;2023-07-29T10:44:52;28.40;99.90
9808;DHT22;4943;52.550;13.462;2023-07-29T10:47:22;28.50;99.90
9808;DHT22;4943;52.550;13.462;2023-07-29T10:49:52;28.60;99.90
9808;DHT22;4943;52.550;13.462;2023-07-29T10:52:37;28.70;99.90
9808;DHT22;4943;52.550;13.462;2023-07-29T10:55:25;28.70;99.90
9808;DHT22;4943;52.550;13.462;2023-07-29T10:58:06;28.60;99.90
9808;DHT22;4943;52.550;13.462;2023-07-29T11:00:35;28.60;99.90
9808;DHT22;4943;52.550;13.462;2023-07-29T11:03:05;28.50;99.90
9808;DHT22;4943;52.550;13.462;2023-07-29T11:05:49;28.40;99.90
9808;DHT22;4943;52.550;13.462;2023-07-29T11:08:19;28.30;99.90
9808;DHT22;4943;52.550;13.462;2023-07-29T11:11:02;28.00;99.90
9808;DHT22;4943;52.550;13.462;2023-07-29T11:13:33;27.70;99.90
9808;DHT22;4943;52.550;13.462;2023-07-29T11:16:02;27.40;99.90
9808;DHT22;4943;52.550;13.462;2023-07-29T11:18:31;27.20;99.90
9808;DHT22;4943;52.550;13.462;2023-07-29T11:21:01;27.00;99.90
9808;DHT22;4943;52.550;13.462;2023-07-29T11:23:31;26.90;99.90
9808;DHT22;4943;52.550;13.462;2023-07-29T11:26:01;26.70;99.90
9808;DHT22;4943;52.550;13.462;2023-07-29T11:28:30;26.30;99.90
9808;DHT22;4943;52.550;13.462;2023-07-29T11:30:59;25.70;99.90
9808;DHT22;4943;52.550;13.462;2023-07-29T11:33:27;25.30;99.90
9808;DHT22;4943;52.550;13.462;2023-07-29T11:35:56;24.90;99.90
9808;DHT22;4943;52.550;13.462;2023-07-29T11:38:24;24.60;99.90
9808;DHT22;4943;52.550;13.462;2023-07-29T11:40:56;24.40;99.90
9808;DHT22;4943;52.550;13.462;2023-07-29T11:43:24;24.20;99.90
9808;DHT22;4943;52.550;13.462;2023-07-29T11:45:53;24.20;99.90
9808;DHT22;4943;52.550;13.462;2023-07-29T11:48:32;24.10;99.90
9808;DHT22;4943;52.550;13.462;2023-07-29T11:51:01;24.20;99.90
9808;DHT22;4943;52.550;13.462;2023-07-29T11:53:30;24.20;99.90
9808;DHT22;4943;52.550;13.462;2023-07-29T11:55:58;24.10;99.90
9808;DHT22;4943;52.550;13.462;2023-07-29T11:58:27;24.10;99.90
9808;DHT22;4943;52.550;13.462;2023-07-29T12:00:56;24.10;99.90
9808;DHT22;4943;52.550;13.462;2023-07-29T12:03:24;24.20;99.90
9808;DHT22;4943;52.550;13.462;2023-07-29T12:05:54;24.30;99.90
9808;DHT22;4943;52.550;13.462;2023-07-29T12:08:22;24.40;99.90
9808;DHT22;4943;52.550;13.462;2023-07-29T12:10:52;24.50;99.90
9808;DHT22;4943;52.550;13.462;2023-07-29T12:13:23;24.60;99.90
9808;DHT22;4943;52.550;13.462;2023-07-29T12:15:51;24.80;99.90
9808;DHT22;4943;52.550;13.462;2023-07-29T12:18:29;24.90;99.90
9808;DHT22;4943;52.550;13.462;2023-07-29T12:20:59;25.00;99.90
9808;DHT22;4943;52.550;13.462;2023-07-29T12:23:29;25.00;99.90
9808;DHT22;4943;52.550;13.462;2023-07-29T12:25:58;25.10;99.90
9808;DHT22;4943;52.550;13.462;2023-07-29T12:28:26;25.10;99.90
9808;DHT22;4943;52.550;13.462;2023-07-29T12:30:55;25.10;99.90
9808;DHT22;4943;52.550;13.462;2023-07-29T12:33:30;25.20;99.90
9808;DHT22;4943;52.550;13.462;2023-07-29T12:36:00;25.30;99.90
9808;DHT22;4943;52.550;13.462;2023-07-29T12:38:29;25.40;99.90
9808;DHT22;4943;52.550;13.462;2023-07-29T12:40:57;25.40;99.90
9808;DHT22;4943;52.550;13.462;2023-07-29T12:43:25;25.50;99.90
9808;DHT22;4943;52.550;13.462;2023-07-29T12:45:53;25.60;99.90
9808;DHT22;4943;52.550;13.462;2023-07-29T12:48:21;25.60;99.90
9808;DHT22;4943;52.550;13.462;2023-07-29T12:50:49;25.80;99.90
9808;DHT22;4943;52.550;13.462;2023-07-29T12:53:19;26.00;99.90
9808;DHT22;4943;52.550;13.462;2023-07-29T12:55:48;26.30;99.90
9808;DHT22;4943;52.550;13.462;2023-07-29T12:58:16;26.50;99.90
9808;DHT22;4943;52.550;13.462;2023-07-29T13:00:44;26.80;99.90
9808;DHT22;4943;52.550;13.462;2023-07-29T13:03:12;27.10;99.90
9808;DHT22;4943;52.550;13.462;2023-07-29T13:05:40;27.30;99.90
9808;DHT22;4943;52.550;13.462;2023-07-29T13:08:08;27.40;99.90
9808;DHT22;4943;52.550;13.462;2023-07-29T13:10:38;27.50;99.90
9808;DHT22;4943;52.550;13.462;2023-07-29T13:13:06;27.50;99.90
9808;DHT22;4943;52.550;13.462;2023-07-29T13:15:34;27.60;99.90
9808;DHT22;4943;52.550;13.462;2023-07-29T13:18:02;27.70;99.90
9808;DHT22;4943;52.550;13.462;2023-07-29T13:20:31;27.70;99.90
9808;DHT22;4943;52.550;13.462;2023-07-29T13:23:00;27.70;99.90
9808;DHT22;4943;52.550;13.462;2023-07-29T13:25:28;27.60;99.90
9808;DHT22;4943;52.550;13.462;2023-07-29T13:27:58;27.40;99.90
9808;DHT22;4943;52.550;13.462;2023-07-29T13:30:26;27.30;99.90
9808;DHT22;4943;52.550;13.462;2023-07-29T13:32:54;27.10;99.90
9808;DHT22;4943;52.550;13.462;2023-07-29T13:35:22;27.10;99.90
9808;DHT22;4943;52.550;13.462;2023-07-29T13:37:50;27.20;99.90
9808;DHT22;4943;52.550;13.462;2023-07-29T13:40:18;27.20;99.90
9808;DHT22;4943;52.550;13.462;2023-07-29T13:42:47;27.40;99.90
9808;DHT22;4943;52.550;13.462;2023-07-29T13:45:16;27.50;99.90
9808;DHT22;4943;52.550;13.462;2023-07-29T13:47:44;27.70;99.90
9808;DHT22;4943;52.550;13.462;2023-07-29T13:50:12;28.00;99.90
9808;DHT22;4943;52.550;13.462;2023-07-29T13:52:40;28.20;99.90
9808;DHT22;4943;52.550;13.462;2023-07-29T13:55:09;28.30;99.90
9808;DHT22;4943;52.550;13.462;2023-07-29T13:57:38;28.40;99.90
9808;DHT22;4943;52.550;13.462;2023-07-29T14:00:07;28.40;99.90
9808;DHT22;4943;52.550;13.462;2023-07-29T14:02:37;28.50;99.90
9808;DHT22;4943;52.550;13.462;2023-07-29T14:05:05;28.60;99.90
9808;DHT22;4943;52.550;13.462;2023-07-29T14:07:34;28.70;99.90
9808;DHT22;4943;52.550;13.462;2023-07-29T14:10:03;28.70;99.90
9808;DHT22;4943;52.550;13.462;2023-07-29T14:12:31;28.60;99.90
9808;DHT22;4943;52.550;13.462;2023-07-29T14:14:59;28.50;99.90
9808;DHT22;4943;52.550;13.462;2023-07-29T14:17:27;28.40;99.90
9808;DHT22;4943;52.550;13.462;2023-07-29T14:19:57;28.30;99.90
9808;DHT22;4943;52.550;13.462;2023-07-29T14:22:25;28.30;99.90
9808;DHT22;4943;52.550;13.462;2023-07-29T14:24:53;28.30;99.90
9808;DHT22;4943;52.550;13.462;2023-07-29T14:27:23;28.20;99.90
9808;DHT22;4943;52.550;13.462;2023-07-29T14:29:51;28.10;99.90
9808;DHT22;4943;52.550;13.462;2023-07-29T14:32:19;28.10;99.90
9808;DHT22;4943;52.550;13.462;2023-07-29T14:34:49;28.00;99.90
9808;DHT22;4943;52.550;13.462;2023-07-29T14:37:19;28.00;99.90
9808;DHT22;4943;52.550;13.462;2023-07-29T14:39:47;28.00;99.90
9808;DHT22;4943;52.550;13.462;2023-07-29T14:42:15;27.90;99.90
9808;DHT22;4943;52.550;13.462;2023-07-29T14:44:43;27.90;99.90
9808;DHT22;4943;52.550;13.462;2023-07-29T14:47:11;27.90;99.90
9808;DHT22;4943;52.550;13.462;2023-07-29T14:49:39;27.90;99.90
9808;DHT22;4943;52.550;13.462;2023-07-29T14:52:07;27.90;99.90
9808;DHT22;4943;52.550;13.462;2023-07-29T14:54:37;27.80;99.90
9808;DHT22;4943;52.550;13.462;2023-07-29T14:57:06;27.80;99.90
9808;DHT22;4943;52.550;13.462;2023-07-29T14:59:34;27.70;99.90
9808;DHT22;4943;52.550;13.462;2023-07-29T15:02:02;27.50;99.90
9808;DHT22;4943;52.550;13.462;2023-07-29T15:04:31;27.40;99.90
9808;DHT22;4943;52.550;13.462;2023-07-29T15:06:59;27.40;99.90
9808;DHT22;4943;52.550;13.462;2023-07-29T15:09:27;27.40;99.90
9808;DHT22;4943;52.550;13.462;2023-07-29T15:11:56;27.30;99.90
9808;DHT22;4943;52.550;13.462;2023-07-29T15:14:25;27.20;99.90
9808;DHT22;4943;52.550;13.462;2023-07-29T15:16:53;27.20;99.90
9808;DHT22;4943;52.550;13.462;2023-07-29T15:19:21;27.10;99.90
9808;DHT22;4943;52.550;13.462;2023-07-29T15:21:49;27.00;99.90
9808;DHT22;4943;52.550;13.462;2023-07-29T15:24:17;27.00;99.90
9808;DHT22;4943;52.550;13.462;2023-07-29T15:26:45;27.00;99.90
9808;DHT22;4943;52.550;13.462;2023-07-29T15:29:15;26.90;99.90
9808;DHT22;4943;52.550;13.462;2023-07-29T15:31:43;26.80;99.90
9808;DHT22;4943;52.550;13.462;2023-07-29T15:34:11;26.70;99.90
9808;DHT22;4943;52.550;13.462;2023-07-29T15:36:39;26.60;99.90
9808;DHT22;4943;52.550;13.462;2023-07-29T15:39:07;26.40;99.90
9808;DHT22;4943;52.550;13.462;2023-07-29T15:41:36;26.30;99.90
9808;DHT22;4943;52.550;13.462;2023-07-29T15:44:04;26.10;99.90
9808;DHT22;4943;52.550;13.462;2023-07-29T15:46:34;25.70;99.90
9808;DHT22;4943;52.550;13.462;2023-07-29T15:49:02;25.20;99.90
9808;DHT22;4943;52.550;13.462;2023-07-29T15:51:31;24.80;99.90
9808;DHT22;4943;52.550;13.462;2023-07-29T15:53:59;24.40;99.90
9808;DHT22;4943;52.550;13.462;2023-07-29T15:56:27;24.20;99.90